powered by Meteolive.it
Dati meteo   Attuali  Passati Ogni 3 ore 7 Giorni 15 Giorni Avvisi Meteo Mappe meteo
Milano / Linate, Italy
Alba: 7:21 AM UTC1
Tramonto: 5:52 PM UTC1
 Lat: 45.42N, Lon: 9.27E
ICAO Usato: LIML
Condizioni Meteo Attuali Aggiornate: 19.02.2018 alle 05:50 LT
Molto Nuvoloso
Molto Nuvoloso
Molto Nuvoloso
N/D
Temp: 4°C
Umidita': 81%
Direz/Vel. Vento: N 04 KTS raffiche
Pressione: 1020 hPa
Punto di rugiada: 1°C
Temperatura percepita: 4°C
Visibilitą: N/D
Temperatura percepita in
presenza di vento (Wind Chill)
:
2°C
T. max (ultime 24 ore): 5°C
T. min (ultime 24 ore): 5°C


METAR ORIGINALE
LIML 190350Z 36004KT 340V050 9000 FEW020 SCT050 04/01 Q1020 NOSIG